Mount Pleasant, SC (29464)

9:45 AM EDT on August 29, 2014 (GMT -0400)
Snee Farm | Change Station
CLOSE
Current Station
Personal Weather Station
Location: Mt. Pleasant, SC
Elevation: 22 ft
Nearby Weather Stations

Elev 22 ft 32.84 °N, 79.84 °W | Updated 4 minutes ago

Scattered Clouds
Scattered Clouds
78.8 °F
Feels Like 83 °F
N
0.0
Wind Variable Wind from SSE
Gusts 0.0 mph

Today
High -- | Low -- °F
--% Chance of Precip.
Yesterday
High -- | Low -- °F
Precip. -- in
6:52 AM 7:47 PM
Waxing Crescent, 14% visible
Pressure 30.09 in
Visibility 7.0 miles
Clouds Scattered Clouds 1900 ft
Heat Index 83 °F
Dew Point 77 °F
Humidity 95%
Rainfall 0.00 in
Snow Depth Not available.
UV 3 out of 12
Pollen 8.20 out of 12
Ozone Good
PM2.5 Good
Flu Activity Not available.
METAR KLRO 291335Z AUTO 00000KT 7SM SCT019 26/24 A3009 RMK AO2

More Conditions Fewer Conditions

Pressure 30.09 in
Visibility 7.0 miles
Clouds Scattered Clouds 1900 ft
Heat Index 83 °F
Dew Point 77 °F
Humidity 95%
Rainfall 0.00 in
Snow Depth Not available.
UV 3 out of 12
Pollen 8.20 out of 12
Ozone Good
PM2.5 Good
Flu Activity Not available.
METAR KLRO 291335Z AUTO 00000KT 7SM SCT019 26/24 A3009 RMK AO2

More Conditions Fewer Conditions

10-Day Weather Forecast

Almanac

Astronomy

Aug. 29, 2014 Rise Set
Actual Time 6:52 AM EDT 7:47 PM EDT
Civil Twilight 6:26 AM EDT 8:13 PM EDT
Nautical Twilight 5:56 AM EDT 8:43 PM EDT
Astronomical Twilight 5:26 AM EDT 9:13 PM EDT
Moon 10:25 AM EDT 10:00 PM EDT
Length of Visible Light 13h 46m
Length of Day
12h 55m
Tomorrow will be 1m 54s shorter.
Waxing Crescent, 14% of the Moon is Illuminated
Today
Waxing Crescent
Sep 2
First Quarter
Sep 8
Full
Sep 15
Last Quarter
Sep 24
New

Today's Extremes

State Highs State Lows

Community

WunderPhotos

Upload Photos

1,748,235 photos uploaded!

Nearby

Air Quality

  Air Quality AQ Index Pollutant
Yesterday Good
OZONE
Yesterday Good
PM2.5
Current Good
PM2.5
Current Good
OZONE
Friday Good
OZONE

Snow Depth

Station Depth Elevation
No new snow has been reported.

Earthquake Activity

City Distance Mag. Time & Date
No recent earthquake activity has been reported nearby.
Minimum magnitude displayed is 2.5.

Coastal Water Temperatures

Place Temperature
No Stations Reporting

Nearby Weather Stations